Cuyuna, Minnesota
Current Conditions -  °F | °C
As of 11:34 AM on Thursday 23 Oct 2014 (Local Time) from KAIT Reporting Station
Overcast Overcast  
Wind Chill: 55°   Ceiling: 800
Heat Index: 55°   Visibility: 10mi
Dew Point: 50°   Wind: 7mph
Humidity: 82%   Direction: 190°S
Pressure: 29.95"   Gusts: NA
Location:  46.4516°N, 93.8664°W
Report Text: KAIT 231634Z AUTO 19006KT 10SM BKN008 OVC013 13/10 A2995 RMK AO2
Loading
Personal Weather Stations






























Interactive Weather Map
Tropical Storm Tracking
New forecast layout! Learn more

10-Day Weather Forecast

Advertisements
Track Severe Weather on mobile